sensor_id;sensor_type;location;lat;lon;timestamp;temperature;humidity
71672;DHT22;67659;45.554;11.812;2023-07-08T00:00:19;24.20;92.60
71672;DHT22;67659;45.554;11.812;2023-07-08T00:02:45;24.20;92.20
71672;DHT22;67659;45.554;11.812;2023-07-08T00:05:13;24.20;91.40
71672;DHT22;67659;45.554;11.812;2023-07-08T00:07:39;24.30;91.60
71672;DHT22;67659;45.554;11.812;2023-07-08T00:10:13;24.30;91.90
71672;DHT22;67659;45.554;11.812;2023-07-08T00:12:39;24.30;92.40
71672;DHT22;67659;45.554;11.812;2023-07-08T00:15:06;24.20;92.40
71672;DHT22;67659;45.554;11.812;2023-07-08T00:17:31;24.20;93.40
71672;DHT22;67659;45.554;11.812;2023-07-08T00:19:58;24.20;93.10
71672;DHT22;67659;45.554;11.812;2023-07-08T00:22:24;24.20;93.20
71672;DHT22;67659;45.554;11.812;2023-07-08T00:24:50;24.20;93.10
71672;DHT22;67659;45.554;11.812;2023-07-08T00:27:16;24.10;93.10
71672;DHT22;67659;45.554;11.812;2023-07-08T00:29:42;24.10;93.00
71672;DHT22;67659;45.554;11.812;2023-07-08T00:32:14;23.90;93.20
71672;DHT22;67659;45.554;11.812;2023-07-08T00:34:41;23.90;93.00
71672;DHT22;67659;45.554;11.812;2023-07-08T00:37:11;23.90;92.90
71672;DHT22;67659;45.554;11.812;2023-07-08T00:39:37;23.90;94.00
71672;DHT22;67659;45.554;11.812;2023-07-08T00:42:13;23.90;93.90
71672;DHT22;67659;45.554;11.812;2023-07-08T00:44:41;23.80;95.20
71672;DHT22;67659;45.554;11.812;2023-07-08T00:47:09;23.90;93.90
71672;DHT22;67659;45.554;11.812;2023-07-08T00:49:46;23.80;94.10
71672;DHT22;67659;45.554;11.812;2023-07-08T00:52:21;23.80;95.80
71672;DHT22;67659;45.554;11.812;2023-07-08T00:54:53;23.80;95.30
71672;DHT22;67659;45.554;11.812;2023-07-08T00:57:20;23.80;95.00
71672;DHT22;67659;45.554;11.812;2023-07-08T00:59:54;23.80;94.60
71672;DHT22;67659;45.554;11.812;2023-07-08T01:02:25;23.70;94.70
71672;DHT22;67659;45.554;11.812;2023-07-08T01:05:05;23.70;94.50
71672;DHT22;67659;45.554;11.812;2023-07-08T01:07:32;23.80;94.80
71672;DHT22;67659;45.554;11.812;2023-07-08T01:10:05;23.70;94.20
71672;DHT22;67659;45.554;11.812;2023-07-08T01:12:39;23.80;96.10
71672;DHT22;67659;45.554;11.812;2023-07-08T01:15:07;23.60;96.10
71672;DHT22;67659;45.554;11.812;2023-07-08T01:17:33;23.70;95.60
71672;DHT22;67659;45.554;11.812;2023-07-08T01:20:00;23.60;95.70
71672;DHT22;67659;45.554;11.812;2023-07-08T01:22:34;23.50;96.50
71672;DHT22;67659;45.554;11.812;2023-07-08T01:25:01;23.40;96.40
71672;DHT22;67659;45.554;11.812;2023-07-08T01:27:30;23.40;96.70
71672;DHT22;67659;45.554;11.812;2023-07-08T01:29:58;23.30;97.10
71672;DHT22;67659;45.554;11.812;2023-07-08T01:32:25;23.30;97.30
71672;DHT22;67659;45.554;11.812;2023-07-08T01:34:54;23.20;97.60
71672;DHT22;67659;45.554;11.812;2023-07-08T01:37:33;23.20;98.80
71672;DHT22;67659;45.554;11.812;2023-07-08T01:42:45;23.00;99.40
71672;DHT22;67659;45.554;11.812;2023-07-08T01:45:15;23.10;99.10
71672;DHT22;67659;45.554;11.812;2023-07-08T01:47:42;23.10;99.30
71672;DHT22;67659;45.554;11.812;2023-07-08T01:50:11;23.20;98.10
71672;DHT22;67659;45.554;11.812;2023-07-08T01:52:37;23.10;98.10
71672;DHT22;67659;45.554;11.812;2023-07-08T01:55:03;23.20;98.60
71672;DHT22;67659;45.554;11.812;2023-07-08T01:57:29;23.00;98.90
71672;DHT22;67659;45.554;11.812;2023-07-08T01:59:55;23.10;99.10
71672;DHT22;67659;45.554;11.812;2023-07-08T02:02:21;23.00;99.80
71672;DHT22;67659;45.554;11.812;2023-07-08T02:04:49;22.90;99.90
71672;DHT22;67659;45.554;11.812;2023-07-08T02:07:15;22.70;99.90
71672;DHT22;67659;45.554;11.812;2023-07-08T02:09:42;22.60;99.90
71672;DHT22;67659;45.554;11.812;2023-07-08T02:12:08;22.50;99.90
71672;DHT22;67659;45.554;11.812;2023-07-08T02:14:34;22.50;99.90
71672;DHT22;67659;45.554;11.812;2023-07-08T02:17:00;22.50;99.90
71672;DHT22;67659;45.554;11.812;2023-07-08T02:19:26;22.50;99.90
71672;DHT22;67659;45.554;11.812;2023-07-08T02:21:53;22.50;99.90
71672;DHT22;67659;45.554;11.812;2023-07-08T02:24:19;22.50;99.90
71672;DHT22;67659;45.554;11.812;2023-07-08T02:26:44;22.40;99.90
71672;DHT22;67659;45.554;11.812;2023-07-08T02:29:12;22.50;99.90
71672;DHT22;67659;45.554;11.812;2023-07-08T02:31:38;22.50;99.90
71672;DHT22;67659;45.554;11.812;2023-07-08T02:34:04;22.60;99.90
71672;DHT22;67659;45.554;11.812;2023-07-08T02:36:30;22.70;99.90
71672;DHT22;67659;45.554;11.812;2023-07-08T02:38:56;22.80;99.90
71672;DHT22;67659;45.554;11.812;2023-07-08T02:41:21;22.80;99.90
71672;DHT22;67659;45.554;11.812;2023-07-08T02:43:47;22.80;99.90
71672;DHT22;67659;45.554;11.812;2023-07-08T02:46:13;22.90;99.90
71672;DHT22;67659;45.554;11.812;2023-07-08T02:48:39;22.70;99.90
71672;DHT22;67659;45.554;11.812;2023-07-08T02:51:05;22.60;99.90
71672;DHT22;67659;45.554;11.812;2023-07-08T02:53:31;22.60;99.90
71672;DHT22;67659;45.554;11.812;2023-07-08T02:55:57;22.40;99.90
71672;DHT22;67659;45.554;11.812;2023-07-08T02:58:24;22.50;99.90
71672;DHT22;67659;45.554;11.812;2023-07-08T03:00:54;22.50;99.90
71672;DHT22;67659;45.554;11.812;2023-07-08T03:03:20;22.50;99.90
71672;DHT22;67659;45.554;11.812;2023-07-08T03:05:57;22.60;99.90
71672;DHT22;67659;45.554;11.812;2023-07-08T03:08:24;22.40;99.90
71672;DHT22;67659;45.554;11.812;2023-07-08T03:10:56;22.30;99.90
71672;DHT22;67659;45.554;11.812;2023-07-08T03:13:22;22.30;99.90
71672;DHT22;67659;45.554;11.812;2023-07-08T03:15:48;22.30;99.90
71672;DHT22;67659;45.554;11.812;2023-07-08T03:18:14;22.20;99.90
71672;DHT22;67659;45.554;11.812;2023-07-08T03:20:41;22.20;99.90
71672;DHT22;67659;45.554;11.812;2023-07-08T03:23:10;22.20;99.90
71672;DHT22;67659;45.554;11.812;2023-07-08T03:25:36;22.20;99.90
71672;DHT22;67659;45.554;11.812;2023-07-08T03:28:03;22.30;99.90
71672;DHT22;67659;45.554;11.812;2023-07-08T03:30:32;22.30;99.90
71672;DHT22;67659;45.554;11.812;2023-07-08T03:32:58;22.30;99.90
71672;DHT22;67659;45.554;11.812;2023-07-08T03:35:25;22.20;99.90
71672;DHT22;67659;45.554;11.812;2023-07-08T03:37:51;22.10;99.90
71672;DHT22;67659;45.554;11.812;2023-07-08T03:40:17;22.00;99.90
71672;DHT22;67659;45.554;11.812;2023-07-08T03:42:43;22.00;99.90
71672;DHT22;67659;45.554;11.812;2023-07-08T03:45:09;22.10;99.90
71672;DHT22;67659;45.554;11.812;2023-07-08T03:47:35;22.00;99.90
71672;DHT22;67659;45.554;11.812;2023-07-08T03:50:01;22.00;99.90
71672;DHT22;67659;45.554;11.812;2023-07-08T03:52:27;22.10;99.90
71672;DHT22;67659;45.554;11.812;2023-07-08T03:54:53;22.20;99.90
71672;DHT22;67659;45.554;11.812;2023-07-08T03:57:18;22.20;99.90
71672;DHT22;67659;45.554;11.812;2023-07-08T03:59:44;22.20;99.90
71672;DHT22;67659;45.554;11.812;2023-07-08T04:02:11;22.30;99.90
71672;DHT22;67659;45.554;11.812;2023-07-08T04:04:37;22.40;99.90
71672;DHT22;67659;45.554;11.812;2023-07-08T04:07:06;22.40;99.90
71672;DHT22;67659;45.554;11.812;2023-07-08T04:09:31;22.20;99.90
71672;DHT22;67659;45.554;11.812;2023-07-08T04:11:57;22.10;99.90
71672;DHT22;67659;45.554;11.812;2023-07-08T04:14:26;22.20;99.90
71672;DHT22;67659;45.554;11.812;2023-07-08T04:16:55;22.20;99.90
71672;DHT22;67659;45.554;11.812;2023-07-08T04:19:24;22.30;99.90
71672;DHT22;67659;45.554;11.812;2023-07-08T04:21:50;22.30;99.90
71672;DHT22;67659;45.554;11.812;2023-07-08T04:24:17;22.50;99.90
71672;DHT22;67659;45.554;11.812;2023-07-08T04:26:45;22.50;99.90
71672;DHT22;67659;45.554;11.812;2023-07-08T04:29:17;22.60;99.90
71672;DHT22;67659;45.554;11.812;2023-07-08T04:31:43;22.70;99.90
71672;DHT22;67659;45.554;11.812;2023-07-08T04:34:09;22.70;99.90
71672;DHT22;67659;45.554;11.812;2023-07-08T04:36:36;22.80;99.90
71672;DHT22;67659;45.554;11.812;2023-07-08T04:39:04;23.00;99.90
71672;DHT22;67659;45.554;11.812;2023-07-08T04:41:30;23.00;99.90
71672;DHT22;67659;45.554;11.812;2023-07-08T04:43:57;23.10;99.90
71672;DHT22;67659;45.554;11.812;2023-07-08T04:46:34;23.10;99.90
71672;DHT22;67659;45.554;11.812;2023-07-08T04:49:03;23.20;99.90
71672;DHT22;67659;45.554;11.812;2023-07-08T04:51:29;23.30;99.90
71672;DHT22;67659;45.554;11.812;2023-07-08T04:53:55;23.30;99.90
71672;DHT22;67659;45.554;11.812;2023-07-08T04:56:21;23.40;99.90
71672;DHT22;67659;45.554;11.812;2023-07-08T04:58:49;23.40;99.90
71672;DHT22;67659;45.554;11.812;2023-07-08T05:01:15;23.40;99.90
71672;DHT22;67659;45.554;11.812;2023-07-08T05:03:41;23.50;99.90
71672;DHT22;67659;45.554;11.812;2023-07-08T05:06:06;23.40;99.90
71672;DHT22;67659;45.554;11.812;2023-07-08T05:08:32;23.60;99.90
71672;DHT22;67659;45.554;11.812;2023-07-08T05:10:58;23.60;99.90
71672;DHT22;67659;45.554;11.812;2023-07-08T05:13:25;23.60;99.90
71672;DHT22;67659;45.554;11.812;2023-07-08T05:15:50;23.80;99.90
71672;DHT22;67659;45.554;11.812;2023-07-08T05:18:16;23.90;99.90
71672;DHT22;67659;45.554;11.812;2023-07-08T05:20:42;24.00;99.90
71672;DHT22;67659;45.554;11.812;2023-07-08T05:23:08;24.20;99.90
71672;DHT22;67659;45.554;11.812;2023-07-08T05:25:35;24.20;99.90
71672;DHT22;67659;45.554;11.812;2023-07-08T05:28:01;24.50;99.60
71672;DHT22;67659;45.554;11.812;2023-07-08T05:30:27;24.50;99.40
71672;DHT22;67659;45.554;11.812;2023-07-08T05:32:53;24.70;98.20
71672;DHT22;67659;45.554;11.812;2023-07-08T05:35:19;24.90;97.20
71672;DHT22;67659;45.554;11.812;2023-07-08T05:37:44;25.20;95.70
71672;DHT22;67659;45.554;11.812;2023-07-08T05:40:12;25.50;94.50
71672;DHT22;67659;45.554;11.812;2023-07-08T05:42:38;25.90;93.00
71672;DHT22;67659;45.554;11.812;2023-07-08T09:44:29;35.00;62.80
71672;DHT22;67659;45.554;11.812;2023-07-08T09:46:57;35.20;68.20
71672;DHT22;67659;45.554;11.812;2023-07-08T09:49:26;35.30;65.40
71672;DHT22;67659;45.554;11.812;2023-07-08T09:51:53;35.50;65.10
71672;DHT22;67659;45.554;11.812;2023-07-08T09:54:22;35.60;63.40
71672;DHT22;67659;45.554;11.812;2023-07-08T09:56:58;35.80;65.90
71672;DHT22;67659;45.554;11.812;2023-07-08T09:59:29;36.10;60.70
71672;DHT22;67659;45.554;11.812;2023-07-08T10:01:59;36.10;59.20
71672;DHT22;67659;45.554;11.812;2023-07-08T10:04:25;36.30;61.30
71672;DHT22;67659;45.554;11.812;2023-07-08T10:06:54;36.40;62.10
71672;DHT22;67659;45.554;11.812;2023-07-08T10:09:24;36.80;60.80
71672;DHT22;67659;45.554;11.812;2023-07-08T10:12:01;37.30;57.10
71672;DHT22;67659;45.554;11.812;2023-07-08T10:14:38;37.40;57.00
71672;DHT22;67659;45.554;11.812;2023-07-08T10:17:05;37.80;57.70
71672;DHT22;67659;45.554;11.812;2023-07-08T10:19:31;37.80;54.40
71672;DHT22;67659;45.554;11.812;2023-07-08T10:27:56;37.20;57.40
71672;DHT22;67659;45.554;11.812;2023-07-08T10:30:30;37.70;54.30
71672;DHT22;67659;45.554;11.812;2023-07-08T10:36:23;37.60;55.10
71672;DHT22;67659;45.554;11.812;2023-07-08T10:41:38;38.00;52.90
71672;DHT22;67659;45.554;11.812;2023-07-08T10:44:15;37.80;54.40
71672;DHT22;67659;45.554;11.812;2023-07-08T10:50:07;37.20;54.90
71672;DHT22;67659;45.554;11.812;2023-07-08T10:55:44;37.40;52.30
71672;DHT22;67659;45.554;11.812;2023-07-08T11:01:26;37.70;53.50
71672;DHT22;67659;45.554;11.812;2023-07-08T11:04:07;37.50;51.00
71672;DHT22;67659;45.554;11.812;2023-07-08T11:06:56;37.40;50.40
71672;DHT22;67659;45.554;11.812;2023-07-08T11:09:56;36.90;48.20
71672;DHT22;67659;45.554;11.812;2023-07-08T11:22:54;36.40;52.80
71672;DHT22;67659;45.554;11.812;2023-07-08T11:25:24;36.70;54.00
71672;DHT22;67659;45.554;11.812;2023-07-08T11:27:55;37.20;54.90
71672;DHT22;67659;45.554;11.812;2023-07-08T11:30:23;37.50;52.40
71672;DHT22;67659;45.554;11.812;2023-07-08T11:33:05;37.60;50.00
71672;DHT22;67659;45.554;11.812;2023-07-08T11:35:40;37.10;51.10
71672;DHT22;67659;45.554;11.812;2023-07-08T11:38:12;36.80;52.40
71672;DHT22;67659;45.554;11.812;2023-07-08T11:43:22;36.80;54.90
71672;DHT22;67659;45.554;11.812;2023-07-08T11:45:50;36.60;54.20
71672;DHT22;67659;45.554;11.812;2023-07-08T11:48:25;36.60;55.50
71672;DHT22;67659;45.554;11.812;2023-07-08T11:50:52;36.50;53.80
71672;DHT22;67659;45.554;11.812;2023-07-08T11:53:34;36.30;54.30
71672;DHT22;67659;45.554;11.812;2023-07-08T11:56:03;35.90;50.70
71672;DHT22;67659;45.554;11.812;2023-07-08T11:58:49;35.50;50.90
71672;DHT22;67659;45.554;11.812;2023-07-08T12:01:32;35.30;53.30
71672;DHT22;67659;45.554;11.812;2023-07-08T12:04:32;35.00;55.30
71672;DHT22;67659;45.554;11.812;2023-07-08T12:07:10;35.30;56.90
71672;DHT22;67659;45.554;11.812;2023-07-08T12:09:40;35.20;56.60
71672;DHT22;67659;45.554;11.812;2023-07-08T12:12:25;35.20;55.60
71672;DHT22;67659;45.554;11.812;2023-07-08T12:15:00;35.00;55.30
71672;DHT22;67659;45.554;11.812;2023-07-08T12:17:27;34.90;53.70
71672;DHT22;67659;45.554;11.812;2023-07-08T12:20:04;34.80;56.90
71672;DHT22;67659;45.554;11.812;2023-07-08T12:22:33;34.70;53.90
71672;DHT22;67659;45.554;11.812;2023-07-08T12:24:59;34.50;54.10
71672;DHT22;67659;45.554;11.812;2023-07-08T12:27:31;34.40;53.70
71672;DHT22;67659;45.554;11.812;2023-07-08T12:29:57;34.30;54.60
71672;DHT22;67659;45.554;11.812;2023-07-08T12:32:23;34.20;55.70
71672;DHT22;67659;45.554;11.812;2023-07-08T12:34:51;34.20;52.20
71672;DHT22;67659;45.554;11.812;2023-07-08T12:37:17;34.10;52.60
71672;DHT22;67659;45.554;11.812;2023-07-08T12:39:43;34.00;54.20
71672;DHT22;67659;45.554;11.812;2023-07-08T12:42:19;33.90;54.00
71672;DHT22;67659;45.554;11.812;2023-07-08T12:44:46;33.90;55.60
71672;DHT22;67659;45.554;11.812;2023-07-08T12:47:14;33.90;54.40
71672;DHT22;67659;45.554;11.812;2023-07-08T12:49:40;33.80;56.40
71672;DHT22;67659;45.554;11.812;2023-07-08T12:52:05;33.90;55.00
71672;DHT22;67659;45.554;11.812;2023-07-08T12:54:32;33.90;54.50
71672;DHT22;67659;45.554;11.812;2023-07-08T12:56:59;33.90;53.80
71672;DHT22;67659;45.554;11.812;2023-07-08T12:59:26;33.80;53.30
71672;DHT22;67659;45.554;11.812;2023-07-08T13:01:52;33.80;52.60
71672;DHT22;67659;45.554;11.812;2023-07-08T13:04:18;33.80;54.70
71672;DHT22;67659;45.554;11.812;2023-07-08T13:06:46;33.80;54.50
71672;DHT22;67659;45.554;11.812;2023-07-08T13:09:36;33.80;52.20
71672;DHT22;67659;45.554;11.812;2023-07-08T13:12:16;33.70;51.10
71672;DHT22;67659;45.554;11.812;2023-07-08T13:14:44;33.70;51.10
71672;DHT22;67659;45.554;11.812;2023-07-08T13:17:14;33.60;50.70
71672;DHT22;67659;45.554;11.812;2023-07-08T13:19:42;33.50;51.50
71672;DHT22;67659;45.554;11.812;2023-07-08T13:22:16;33.40;50.00
71672;DHT22;67659;45.554;11.812;2023-07-08T13:24:45;33.40;52.10
71672;DHT22;67659;45.554;11.812;2023-07-08T13:27:23;33.40;52.00
71672;DHT22;67659;45.554;11.812;2023-07-08T13:29:54;33.40;53.50
71672;DHT22;67659;45.554;11.812;2023-07-08T13:32:20;33.40;52.30
71672;DHT22;67659;45.554;11.812;2023-07-08T13:34:49;33.40;52.10
71672;DHT22;67659;45.554;11.812;2023-07-08T13:37:17;33.50;54.30
71672;DHT22;67659;45.554;11.812;2023-07-08T13:39:46;33.50;54.30
71672;DHT22;67659;45.554;11.812;2023-07-08T13:42:12;33.50;54.00
71672;DHT22;67659;45.554;11.812;2023-07-08T13:44:46;33.50;55.20
71672;DHT22;67659;45.554;11.812;2023-07-08T13:47:28;33.50;50.80
71672;DHT22;67659;45.554;11.812;2023-07-08T13:50:05;33.50;51.10
71672;DHT22;67659;45.554;11.812;2023-07-08T13:52:32;33.30;50.70
71672;DHT22;67659;45.554;11.812;2023-07-08T13:55:01;33.40;51.50
71672;DHT22;67659;45.554;11.812;2023-07-08T13:57:33;33.40;51.60
71672;DHT22;67659;45.554;11.812;2023-07-08T14:00:00;33.40;50.60
71672;DHT22;67659;45.554;11.812;2023-07-08T14:02:29;33.40;51.90
71672;DHT22;67659;45.554;11.812;2023-07-08T14:04:57;33.40;49.20
71672;DHT22;67659;45.554;11.812;2023-07-08T14:07:26;33.40;50.50
71672;DHT22;67659;45.554;11.812;2023-07-08T14:09:52;33.30;50.30
71672;DHT22;67659;45.554;11.812;2023-07-08T14:12:20;33.40;50.40
71672;DHT22;67659;45.554;11.812;2023-07-08T14:14:46;33.40;51.10
71672;DHT22;67659;45.554;11.812;2023-07-08T14:17:15;33.40;51.80
71672;DHT22;67659;45.554;11.812;2023-07-08T14:19:44;33.40;50.90
71672;DHT22;67659;45.554;11.812;2023-07-08T14:24:41;33.40;53.10
71672;DHT22;67659;45.554;11.812;2023-07-08T14:27:08;33.50;53.80
71672;DHT22;67659;45.554;11.812;2023-07-08T14:29:40;33.50;53.40
71672;DHT22;67659;45.554;11.812;2023-07-08T14:32:13;33.40;52.80
71672;DHT22;67659;45.554;11.812;2023-07-08T14:34:40;33.20;53.30
71672;DHT22;67659;45.554;11.812;2023-07-08T14:37:14;33.10;53.90
71672;DHT22;67659;45.554;11.812;2023-07-08T14:39:40;33.10;51.80
71672;DHT22;67659;45.554;11.812;2023-07-08T14:42:12;33.10;51.80
71672;DHT22;67659;45.554;11.812;2023-07-08T14:44:38;33.10;53.60
71672;DHT22;67659;45.554;11.812;2023-07-08T14:47:12;33.10;56.10
71672;DHT22;67659;45.554;11.812;2023-07-08T14:49:39;33.10;55.90
71672;DHT22;67659;45.554;11.812;2023-07-08T14:52:06;33.20;55.40
71672;DHT22;67659;45.554;11.812;2023-07-08T14:54:32;33.20;54.90
71672;DHT22;67659;45.554;11.812;2023-07-08T14:56:59;33.30;55.70
71672;DHT22;67659;45.554;11.812;2023-07-08T14:59:28;33.20;52.70
71672;DHT22;67659;45.554;11.812;2023-07-08T15:01:57;33.10;51.20
71672;DHT22;67659;45.554;11.812;2023-07-08T15:04:24;33.00;50.10
71672;DHT22;67659;45.554;11.812;2023-07-08T15:06:50;33.00;52.10
71672;DHT22;67659;45.554;11.812;2023-07-08T15:09:17;33.10;52.80
71672;DHT22;67659;45.554;11.812;2023-07-08T15:11:44;33.00;54.40
71672;DHT22;67659;45.554;11.812;2023-07-08T15:14:21;33.10;55.70
71672;DHT22;67659;45.554;11.812;2023-07-08T15:16:48;33.20;54.60
71672;DHT22;67659;45.554;11.812;2023-07-08T15:19:15;33.20;55.20
71672;DHT22;67659;45.554;11.812;2023-07-08T15:21:41;33.20;54.50
71672;DHT22;67659;45.554;11.812;2023-07-08T15:24:09;33.30;56.50
71672;DHT22;67659;45.554;11.812;2023-07-08T15:26:43;33.20;55.40
71672;DHT22;67659;45.554;11.812;2023-07-08T15:29:19;33.10;53.90
71672;DHT22;67659;45.554;11.812;2023-07-08T15:31:45;33.10;55.10
71672;DHT22;67659;45.554;11.812;2023-07-08T15:34:14;33.10;55.50
71672;DHT22;67659;45.554;11.812;2023-07-08T15:36:40;33.10;52.80
71672;DHT22;67659;45.554;11.812;2023-07-08T15:39:07;33.10;54.00
71672;DHT22;67659;45.554;11.812;2023-07-08T15:41:36;33.00;52.40
71672;DHT22;67659;45.554;11.812;2023-07-08T15:44:06;33.00;51.70
71672;DHT22;67659;45.554;11.812;2023-07-08T15:46:36;33.00;50.70
71672;DHT22;67659;45.554;11.812;2023-07-08T15:49:13;33.00;54.60
71672;DHT22;67659;45.554;11.812;2023-07-08T15:51:40;32.90;54.20
71672;DHT22;67659;45.554;11.812;2023-07-08T15:54:06;32.90;54.00
71672;DHT22;67659;45.554;11.812;2023-07-08T15:56:32;32.80;53.40
71672;DHT22;67659;45.554;11.812;2023-07-08T15:58:59;32.80;53.50
71672;DHT22;67659;45.554;11.812;2023-07-08T16:01:25;32.90;55.30
71672;DHT22;67659;45.554;11.812;2023-07-08T16:03:52;33.00;56.10
71672;DHT22;67659;45.554;11.812;2023-07-08T16:06:24;33.00;56.20
71672;DHT22;67659;45.554;11.812;2023-07-08T16:08:51;33.00;56.20
71672;DHT22;67659;45.554;11.812;2023-07-08T16:11:29;32.90;54.30
71672;DHT22;67659;45.554;11.812;2023-07-08T16:13:56;32.90;53.50
71672;DHT22;67659;45.554;11.812;2023-07-08T16:16:23;32.90;55.80
71672;DHT22;67659;45.554;11.812;2023-07-08T16:18:49;33.00;54.40
71672;DHT22;67659;45.554;11.812;2023-07-08T16:21:15;33.00;55.70
71672;DHT22;67659;45.554;11.812;2023-07-08T16:23:42;32.90;53.60
71672;DHT22;67659;45.554;11.812;2023-07-08T16:26:14;32.90;54.80
71672;DHT22;67659;45.554;11.812;2023-07-08T16:28:43;32.90;56.80
71672;DHT22;67659;45.554;11.812;2023-07-08T16:31:12;32.90;56.30
71672;DHT22;67659;45.554;11.812;2023-07-08T16:33:42;32.80;55.80
71672;DHT22;67659;45.554;11.812;2023-07-08T16:36:16;32.80;56.10
71672;DHT22;67659;45.554;11.812;2023-07-08T16:38:43;32.80;56.60
71672;DHT22;67659;45.554;11.812;2023-07-08T16:41:16;32.90;56.70
71672;DHT22;67659;45.554;11.812;2023-07-08T16:43:43;32.80;55.50
71672;DHT22;67659;45.554;11.812;2023-07-08T16:46:13;32.90;56.80
71672;DHT22;67659;45.554;11.812;2023-07-08T16:48:40;32.90;58.30
71672;DHT22;67659;45.554;11.812;2023-07-08T16:51:28;32.90;58.10
71672;DHT22;67659;45.554;11.812;2023-07-08T16:56:36;32.70;57.60
71672;DHT22;67659;45.554;11.812;2023-07-08T16:59:02;32.70;57.80
71672;DHT22;67659;45.554;11.812;2023-07-08T17:01:29;32.70;58.50
71672;DHT22;67659;45.554;11.812;2023-07-08T17:03:56;32.70;59.00
71672;DHT22;67659;45.554;11.812;2023-07-08T17:06:23;32.70;57.90
71672;DHT22;67659;45.554;11.812;2023-07-08T17:08:49;32.70;57.60
71672;DHT22;67659;45.554;11.812;2023-07-08T17:11:17;32.60;58.10
71672;DHT22;67659;45.554;11.812;2023-07-08T17:13:43;32.70;58.20
71672;DHT22;67659;45.554;11.812;2023-07-08T17:16:18;32.70;59.30
71672;DHT22;67659;45.554;11.812;2023-07-08T17:18:53;32.70;59.40
71672;DHT22;67659;45.554;11.812;2023-07-08T17:21:19;32.50;58.80
71672;DHT22;67659;45.554;11.812;2023-07-08T17:23:45;32.60;58.70
71672;DHT22;67659;45.554;11.812;2023-07-08T17:26:12;32.60;59.90
71672;DHT22;67659;45.554;11.812;2023-07-08T17:28:38;32.50;60.20
71672;DHT22;67659;45.554;11.812;2023-07-08T17:31:05;32.50;60.10
71672;DHT22;67659;45.554;11.812;2023-07-08T17:33:31;32.50;59.70
71672;DHT22;67659;45.554;11.812;2023-07-08T17:35:57;32.60;59.50
71672;DHT22;67659;45.554;11.812;2023-07-08T17:38:45;32.40;59.30
71672;DHT22;67659;45.554;11.812;2023-07-08T17:41:13;32.60;60.10
71672;DHT22;67659;45.554;11.812;2023-07-08T17:43:39;32.50;59.80
71672;DHT22;67659;45.554;11.812;2023-07-08T17:46:10;32.50;59.70
71672;DHT22;67659;45.554;11.812;2023-07-08T17:48:37;32.60;60.40
71672;DHT22;67659;45.554;11.812;2023-07-08T17:51:05;32.50;62.30
71672;DHT22;67659;45.554;11.812;2023-07-08T17:53:31;32.20;66.20
71672;DHT22;67659;45.554;11.812;2023-07-08T17:55:58;32.00;66.80
71672;DHT22;67659;45.554;11.812;2023-07-08T17:58:27;31.90;67.60
71672;DHT22;67659;45.554;11.812;2023-07-08T18:00:57;31.60;71.20
71672;DHT22;67659;45.554;11.812;2023-07-08T18:03:22;31.50;70.50
71672;DHT22;67659;45.554;11.812;2023-07-08T18:05:48;31.40;71.00
71672;DHT22;67659;45.554;11.812;2023-07-08T18:08:14;31.20;71.00
71672;DHT22;67659;45.554;11.812;2023-07-08T18:10:40;31.10;70.60
71672;DHT22;67659;45.554;11.812;2023-07-08T18:13:17;31.20;70.50
71672;DHT22;67659;45.554;11.812;2023-07-08T18:15:43;31.20;70.80
71672;DHT22;67659;45.554;11.812;2023-07-08T18:18:10;31.10;69.80
71672;DHT22;67659;45.554;11.812;2023-07-08T18:20:38;31.10;69.80
71672;DHT22;67659;45.554;11.812;2023-07-08T18:23:17;31.10;70.20
71672;DHT22;67659;45.554;11.812;2023-07-08T18:25:43;30.90;71.30
71672;DHT22;67659;45.554;11.812;2023-07-08T18:28:10;30.90;71.10
71672;DHT22;67659;45.554;11.812;2023-07-08T18:30:54;30.80;71.20
71672;DHT22;67659;45.554;11.812;2023-07-08T18:33:32;30.70;71.00
71672;DHT22;67659;45.554;11.812;2023-07-08T18:35:59;30.50;71.50
71672;DHT22;67659;45.554;11.812;2023-07-08T18:38:25;30.60;70.50
71672;DHT22;67659;45.554;11.812;2023-07-08T18:40:51;30.40;69.70
71672;DHT22;67659;45.554;11.812;2023-07-08T18:43:21;30.40;68.90
71672;DHT22;67659;45.554;11.812;2023-07-08T18:45:50;30.30;69.80
71672;DHT22;67659;45.554;11.812;2023-07-08T18:48:17;30.30;69.90
71672;DHT22;67659;45.554;11.812;2023-07-08T18:50:51;30.30;70.00
71672;DHT22;67659;45.554;11.812;2023-07-08T18:53:19;30.30;70.80
71672;DHT22;67659;45.554;11.812;2023-07-08T18:55:45;30.20;69.50
71672;DHT22;67659;45.554;11.812;2023-07-08T18:58:14;30.30;69.10
71672;DHT22;67659;45.554;11.812;2023-07-08T19:00:41;30.20;69.50
71672;DHT22;67659;45.554;11.812;2023-07-08T19:03:26;30.20;69.70
71672;DHT22;67659;45.554;11.812;2023-07-08T19:05:52;30.10;69.40
71672;DHT22;67659;45.554;11.812;2023-07-08T19:08:20;30.20;69.30
71672;DHT22;67659;45.554;11.812;2023-07-08T19:10:50;30.00;69.50
71672;DHT22;67659;45.554;11.812;2023-07-08T19:13:21;29.90;70.00
71672;DHT22;67659;45.554;11.812;2023-07-08T19:15:50;29.80;70.50
71672;DHT22;67659;45.554;11.812;2023-07-08T19:18:17;29.80;69.90
71672;DHT22;67659;45.554;11.812;2023-07-08T19:20:46;29.90;69.10
71672;DHT22;67659;45.554;11.812;2023-07-08T19:23:17;30.00;69.10
71672;DHT22;67659;45.554;11.812;2023-07-08T19:25:44;29.90;68.90
71672;DHT22;67659;45.554;11.812;2023-07-08T19:28:10;29.90;68.90
71672;DHT22;67659;45.554;11.812;2023-07-08T19:30:39;29.90;68.80
71672;DHT22;67659;45.554;11.812;2023-07-08T19:33:06;29.80;69.60
71672;DHT22;67659;45.554;11.812;2023-07-08T19:35:41;29.70;70.10
71672;DHT22;67659;45.554;11.812;2023-07-08T19:38:13;29.80;69.50
71672;DHT22;67659;45.554;11.812;2023-07-08T19:40:46;29.80;69.90
71672;DHT22;67659;45.554;11.812;2023-07-08T19:43:15;29.60;70.20
71672;DHT22;67659;45.554;11.812;2023-07-08T19:45:41;29.60;70.30
71672;DHT22;67659;45.554;11.812;2023-07-08T19:48:10;29.50;71.10
71672;DHT22;67659;45.554;11.812;2023-07-08T19:50:36;29.50;71.10
71672;DHT22;67659;45.554;11.812;2023-07-08T19:53:02;29.70;70.00
71672;DHT22;67659;45.554;11.812;2023-07-08T19:55:29;29.60;70.70
71672;DHT22;67659;45.554;11.812;2023-07-08T19:57:55;29.70;70.10
71672;DHT22;67659;45.554;11.812;2023-07-08T20:00:36;29.60;70.10
71672;DHT22;67659;45.554;11.812;2023-07-08T20:03:03;29.60;70.30
71672;DHT22;67659;45.554;11.812;2023-07-08T20:05:33;29.70;70.70
71672;DHT22;67659;45.554;11.812;2023-07-08T20:08:05;29.40;71.90